sensor_id;sensor_type;location;lat;lon;timestamp;pressure;altitude;pressure_sealevel;temperature;humidity
10510;BME280;5303;53.266;10.410;2022-10-16T00:00:29;100744.66;;;14.97;100.00
10510;BME280;5303;53.266;10.410;2022-10-16T00:02:54;100745.75;;;15.03;100.00
10510;BME280;5303;53.266;10.410;2022-10-16T00:05:20;100748.47;;;15.03;100.00
10510;BME280;5303;53.266;10.410;2022-10-16T00:07:45;100748.69;;;15.08;100.00
10510;BME280;5303;53.266;10.410;2022-10-16T00:10:11;100749.75;;;15.07;100.00
10510;BME280;5303;53.266;10.410;2022-10-16T00:12:36;100746.34;;;14.98;100.00
10510;BME280;5303;53.266;10.410;2022-10-16T00:15:01;100748.44;;;14.89;100.00
10510;BME280;5303;53.266;10.410;2022-10-16T00:17:27;100749.03;;;14.91;100.00
10510;BME280;5303;53.266;10.410;2022-10-16T00:19:52;100751.09;;;14.83;100.00
10510;BME280;5303;53.266;10.410;2022-10-16T00:22:17;100755.13;;;14.80;100.00
10510;BME280;5303;53.266;10.410;2022-10-16T00:24:43;100762.25;;;14.75;100.00
10510;BME280;5303;53.266;10.410;2022-10-16T00:27:08;100761.63;;;14.79;100.00
10510;BME280;5303;53.266;10.410;2022-10-16T00:29:33;100765.41;;;14.72;100.00
10510;BME280;5303;53.266;10.410;2022-10-16T00:31:58;100772.41;;;14.81;100.00
10510;BME280;5303;53.266;10.410;2022-10-16T00:34:24;100768.84;;;14.80;100.00
10510;BME280;5303;53.266;10.410;2022-10-16T00:36:49;100777.50;;;14.84;100.00
10510;BME280;5303;53.266;10.410;2022-10-16T00:39:14;100766.31;;;14.85;100.00
10510;BME280;5303;53.266;10.410;2022-10-16T00:41:40;100773.00;;;14.76;100.00
10510;BME280;5303;53.266;10.410;2022-10-16T00:47:17;100780.78;;;14.73;100.00
10510;BME280;5303;53.266;10.410;2022-10-16T00:49:43;100771.13;;;14.77;100.00
10510;BME280;5303;53.266;10.410;2022-10-16T00:52:09;100768.59;;;14.75;100.00
10510;BME280;5303;53.266;10.410;2022-10-16T00:54:35;100771.97;;;14.77;100.00
10510;BME280;5303;53.266;10.410;2022-10-16T00:57:03;100762.44;;;14.73;100.00
10510;BME280;5303;53.266;10.410;2022-10-16T00:59:35;100769.38;;;14.69;100.00
10510;BME280;5303;53.266;10.410;2022-10-16T01:02:02;100774.03;;;14.68;100.00
10510;BME280;5303;53.266;10.410;2022-10-16T01:04:34;100776.91;;;14.60;100.00
10510;BME280;5303;53.266;10.410;2022-10-16T01:10:38;100776.03;;;14.53;100.00
10510;BME280;5303;53.266;10.410;2022-10-16T01:13:10;100778.69;;;14.47;100.00
10510;BME280;5303;53.266;10.410;2022-10-16T01:21:15;100784.56;;;14.43;100.00
10510;BME280;5303;53.266;10.410;2022-10-16T01:24:06;100790.38;;;14.55;100.00
10510;BME280;5303;53.266;10.410;2022-10-16T01:32:24;100800.56;;;14.40;100.00
10510;BME280;5303;53.266;10.410;2022-10-16T01:34:55;100792.03;;;14.28;100.00
10510;BME280;5303;53.266;10.410;2022-10-16T01:37:37;100796.50;;;14.29;100.00
10510;BME280;5303;53.266;10.410;2022-10-16T01:40:09;100790.28;;;14.20;100.00
10510;BME280;5303;53.266;10.410;2022-10-16T01:42:41;100789.69;;;14.25;100.00
10510;BME280;5303;53.266;10.410;2022-10-16T01:45:09;100793.44;;;14.17;100.00
10510;BME280;5303;53.266;10.410;2022-10-16T01:47:37;100800.53;;;14.12;100.00
10510;BME280;5303;53.266;10.410;2022-10-16T01:50:04;100793.44;;;14.17;100.00
10510;BME280;5303;53.266;10.410;2022-10-16T01:52:32;100791.94;;;14.15;100.00
10510;BME280;5303;53.266;10.410;2022-10-16T01:55:00;100794.66;;;14.15;100.00
10510;BME280;5303;53.266;10.410;2022-10-16T01:57:28;100794.22;;;14.11;100.00
10510;BME280;5303;53.266;10.410;2022-10-16T01:59:56;100795.06;;;14.12;100.00
10510;BME280;5303;53.266;10.410;2022-10-16T02:02:26;100799.06;;;14.09;100.00
10510;BME280;5303;53.266;10.410;2022-10-16T02:04:58;100800.75;;;14.10;100.00
10510;BME280;5303;53.266;10.410;2022-10-16T02:07:24;100804.53;;;14.09;100.00
10510;BME280;5303;53.266;10.410;2022-10-16T02:09:49;100801.97;;;14.08;100.00
10510;BME280;5303;53.266;10.410;2022-10-16T02:12:28;100806.06;;;14.18;100.00
10510;BME280;5303;53.266;10.410;2022-10-16T02:14:54;100796.31;;;14.09;100.00
10510;BME280;5303;53.266;10.410;2022-10-16T02:17:20;100805.91;;;13.98;100.00
10510;BME280;5303;53.266;10.410;2022-10-16T02:19:47;100803.22;;;14.05;100.00
10510;BME280;5303;53.266;10.410;2022-10-16T02:22:18;100803.66;;;14.09;100.00
10510;BME280;5303;53.266;10.410;2022-10-16T02:24:52;100796.06;;;14.04;100.00
10510;BME280;5303;53.266;10.410;2022-10-16T02:30:39;100794.16;;;14.05;100.00
10510;BME280;5303;53.266;10.410;2022-10-16T02:33:09;100791.63;;;14.03;100.00
10510;BME280;5303;53.266;10.410;2022-10-16T02:35:36;100793.25;;;13.97;100.00
10510;BME280;5303;53.266;10.410;2022-10-16T02:38:03;100795.53;;;13.94;100.00
10510;BME280;5303;53.266;10.410;2022-10-16T02:40:29;100793.44;;;13.96;100.00
10510;BME280;5303;53.266;10.410;2022-10-16T02:42:55;100797.06;;;13.96;100.00
10510;BME280;5303;53.266;10.410;2022-10-16T02:45:21;100795.59;;;14.01;100.00
10510;BME280;5303;53.266;10.410;2022-10-16T02:47:46;100793.25;;;13.97;100.00
10510;BME280;5303;53.266;10.410;2022-10-16T02:50:12;100803.59;;;14.02;100.00
10510;BME280;5303;53.266;10.410;2022-10-16T02:52:37;100804.59;;;13.94;100.00
10510;BME280;5303;53.266;10.410;2022-10-16T02:55:02;100801.34;;;13.84;100.00
10510;BME280;5303;53.266;10.410;2022-10-16T02:57:28;100805.44;;;13.95;100.00
10510;BME280;5303;53.266;10.410;2022-10-16T02:59:53;100810.66;;;13.90;100.00
10510;BME280;5303;53.266;10.410;2022-10-16T03:02:18;100815.72;;;13.93;100.00
10510;BME280;5303;53.266;10.410;2022-10-16T03:04:44;100808.19;;;13.95;100.00
10510;BME280;5303;53.266;10.410;2022-10-16T03:07:09;100814.66;;;13.87;100.00
10510;BME280;5303;53.266;10.410;2022-10-16T03:09:34;100811.63;;;13.82;100.00
10510;BME280;5303;53.266;10.410;2022-10-16T03:12:00;100810.84;;;13.88;100.00
10510;BME280;5303;53.266;10.410;2022-10-16T03:14:25;100794.88;;;13.92;100.00
10510;BME280;5303;53.266;10.410;2022-10-16T03:16:50;100795.41;;;13.81;100.00
10510;BME280;5303;53.266;10.410;2022-10-16T03:19:16;100793.69;;;13.80;100.00
10510;BME280;5303;53.266;10.410;2022-10-16T03:21:42;100798.25;;;13.72;100.00
10510;BME280;5303;53.266;10.410;2022-10-16T03:24:07;100793.00;;;13.71;100.00
10510;BME280;5303;53.266;10.410;2022-10-16T03:26:33;100791.34;;;13.77;100.00
10510;BME280;5303;53.266;10.410;2022-10-16T03:28:58;100793.44;;;13.74;100.00
10510;BME280;5303;53.266;10.410;2022-10-16T03:31:23;100793.31;;;13.83;100.00
10510;BME280;5303;53.266;10.410;2022-10-16T03:33:48;100793.00;;;13.71;100.00
10510;BME280;5303;53.266;10.410;2022-10-16T03:36:14;100797.22;;;13.73;100.00
10510;BME280;5303;53.266;10.410;2022-10-16T03:38:39;100795.91;;;13.69;100.00
10510;BME280;5303;53.266;10.410;2022-10-16T03:41:04;100797.16;;;13.67;100.00
10510;BME280;5303;53.266;10.410;2022-10-16T03:43:30;100801.31;;;13.63;100.00
10510;BME280;5303;53.266;10.410;2022-10-16T03:45:55;100800.09;;;13.65;100.00
10510;BME280;5303;53.266;10.410;2022-10-16T03:48:20;100800.94;;;13.66;100.00
10510;BME280;5303;53.266;10.410;2022-10-16T03:50:46;100813.38;;;13.68;100.00
10510;BME280;5303;53.266;10.410;2022-10-16T03:53:14;100805.63;;;13.72;100.00
10510;BME280;5303;53.266;10.410;2022-10-16T03:55:41;100805.34;;;13.67;100.00
10510;BME280;5303;53.266;10.410;2022-10-16T03:58:06;100797.16;;;13.67;100.00
10510;BME280;5303;53.266;10.410;2022-10-16T04:00:32;100803.66;;;13.66;100.00
10510;BME280;5303;53.266;10.410;2022-10-16T04:02:57;100818.41;;;13.65;100.00
10510;BME280;5303;53.266;10.410;2022-10-16T04:05:22;100814.16;;;13.62;100.00
10510;BME280;5303;53.266;10.410;2022-10-16T04:07:47;100818.28;;;13.73;100.00
10510;BME280;5303;53.266;10.410;2022-10-16T04:10:13;100819.63;;;13.62;100.00
10510;BME280;5303;53.266;10.410;2022-10-16T04:12:38;100817.06;;;13.61;100.00
10510;BME280;5303;53.266;10.410;2022-10-16T04:15:03;100822.00;;;13.65;100.00
10510;BME280;5303;53.266;10.410;2022-10-16T04:17:29;100816.31;;;13.67;100.00
10510;BME280;5303;53.266;10.410;2022-10-16T04:19:54;100819.31;;;13.72;100.00
10510;BME280;5303;53.266;10.410;2022-10-16T04:22:19;100820.69;;;13.61;100.00
10510;BME280;5303;53.266;10.410;2022-10-16T04:24:45;100826.94;;;13.55;100.00
10510;BME280;5303;53.266;10.410;2022-10-16T04:27:10;100837.41;;;13.51;100.00
10510;BME280;5303;53.266;10.410;2022-10-16T04:29:35;100844.28;;;13.47;100.00
10510;BME280;5303;53.266;10.410;2022-10-16T04:32:01;100838.25;;;13.52;100.00
10510;BME280;5303;53.266;10.410;2022-10-16T04:34:26;100840.72;;;13.47;100.00
10510;BME280;5303;53.266;10.410;2022-10-16T04:36:51;100846.19;;;13.47;100.00
10510;BME280;5303;53.266;10.410;2022-10-16T04:39:17;100849.00;;;13.54;100.00
10510;BME280;5303;53.266;10.410;2022-10-16T04:41:42;100855.53;;;13.52;100.00
10510;BME280;5303;53.266;10.410;2022-10-16T04:44:07;100875.31;;;13.55;100.00
10510;BME280;5303;53.266;10.410;2022-10-16T04:46:33;100872.59;;;13.55;100.00
10510;BME280;5303;53.266;10.410;2022-10-16T04:48:58;100874.56;;;13.61;100.00
10510;BME280;5303;53.266;10.410;2022-10-16T04:51:23;100879.56;;;13.57;100.00
10510;BME280;5303;53.266;10.410;2022-10-16T04:53:50;100878.03;;;13.69;100.00
10510;BME280;5303;53.266;10.410;2022-10-16T04:56:15;100877.78;;;13.64;100.00
10510;BME280;5303;53.266;10.410;2022-10-16T04:58:41;100866.25;;;13.69;100.00
10510;BME280;5303;53.266;10.410;2022-10-16T05:01:06;100873.78;;;13.67;100.00
10510;BME280;5303;53.266;10.410;2022-10-16T05:03:31;100866.63;;;13.66;100.00
10510;BME280;5303;53.266;10.410;2022-10-16T05:05:57;100874.00;;;13.65;100.00
10510;BME280;5303;53.266;10.410;2022-10-16T05:08:22;100873.63;;;13.68;100.00
10510;BME280;5303;53.266;10.410;2022-10-16T05:10:48;100880.59;;;13.71;100.00
10510;BME280;5303;53.266;10.410;2022-10-16T05:13:13;100871.06;;;13.67;100.00
10510;BME280;5303;53.266;10.410;2022-10-16T05:15:38;100874.84;;;13.66;100.00
10510;BME280;5303;53.266;10.410;2022-10-16T05:18:04;100871.63;;;13.62;100.00
10510;BME280;5303;53.266;10.410;2022-10-16T05:20:29;100878.41;;;13.66;100.00
10510;BME280;5303;53.266;10.410;2022-10-16T05:22:55;100882.22;;;13.65;100.00
10510;BME280;5303;53.266;10.410;2022-10-16T05:25:20;100892.03;;;13.60;100.00
10510;BME280;5303;53.266;10.410;2022-10-16T05:27:49;100889.19;;;13.68;100.00
10510;BME280;5303;53.266;10.410;2022-10-16T05:30:15;100887.59;;;13.59;100.00
10510;BME280;5303;53.266;10.410;2022-10-16T05:32:40;100888.44;;;13.59;100.00
10510;BME280;5303;53.266;10.410;2022-10-16T05:35:06;100890.81;;;13.62;100.00
10510;BME280;5303;53.266;10.410;2022-10-16T05:37:32;100894.38;;;13.63;100.00
10510;BME280;5303;53.266;10.410;2022-10-16T05:39:58;100899.69;;;13.64;100.00
10510;BME280;5303;53.266;10.410;2022-10-16T05:42:23;100909.28;;;13.75;100.00
10510;BME280;5303;53.266;10.410;2022-10-16T05:44:48;100903.97;;;13.73;100.00
10510;BME280;5303;53.266;10.410;2022-10-16T05:47:14;100900.00;;;13.76;100.00
10510;BME280;5303;53.266;10.410;2022-10-16T05:49:39;100903.22;;;13.80;100.00
10510;BME280;5303;53.266;10.410;2022-10-16T05:52:05;100899.00;;;13.62;100.00
10510;BME280;5303;53.266;10.410;2022-10-16T05:54:30;100898.25;;;13.68;100.00
10510;BME280;5303;53.266;10.410;2022-10-16T05:56:55;100907.31;;;13.69;100.00
10510;BME280;5303;53.266;10.410;2022-10-16T05:59:21;100904.50;;;13.62;100.00
10510;BME280;5303;53.266;10.410;2022-10-16T06:01:46;100904.41;;;13.56;100.00
10510;BME280;5303;53.266;10.410;2022-10-16T06:04:11;100902.44;;;13.49;100.00
10510;BME280;5303;53.266;10.410;2022-10-16T06:06:37;100909.88;;;13.56;100.00
10510;BME280;5303;53.266;10.410;2022-10-16T06:09:03;100910.03;;;13.69;100.00
10510;BME280;5303;53.266;10.410;2022-10-16T06:11:31;100909.75;;;13.64;100.00
10510;BME280;5303;53.266;10.410;2022-10-16T06:13:58;100913.75;;;13.61;100.00
10510;BME280;5303;53.266;10.410;2022-10-16T06:16:26;100911.34;;;13.73;100.00
10510;BME280;5303;53.266;10.410;2022-10-16T06:18:52;100917.31;;;13.62;100.00
10510;BME280;5303;53.266;10.410;2022-10-16T06:21:20;100918.63;;;13.51;100.00
10510;BME280;5303;53.266;10.410;2022-10-16T06:23:46;100929.41;;;13.52;100.00
10510;BME280;5303;53.266;10.410;2022-10-16T06:26:14;100930.06;;;13.55;100.00
10510;BME280;5303;53.266;10.410;2022-10-16T06:28:40;100924.13;;;13.51;100.00
10510;BME280;5303;53.266;10.410;2022-10-16T06:31:07;100937.34;;;13.47;100.00
10510;BME280;5303;53.266;10.410;2022-10-16T06:33:32;100929.59;;;13.51;100.00
10510;BME280;5303;53.266;10.410;2022-10-16T06:38:27;100935.72;;;13.53;100.00
10510;BME280;5303;53.266;10.410;2022-10-16T06:40:53;100939.31;;;13.54;100.00
10510;BME280;5303;53.266;10.410;2022-10-16T06:43:18;100929.28;;;13.61;100.00
10510;BME280;5303;53.266;10.410;2022-10-16T06:45:50;100938.94;;;13.57;100.00
10510;BME280;5303;53.266;10.410;2022-10-16T06:48:16;100952.34;;;13.51;100.00
10510;BME280;5303;53.266;10.410;2022-10-16T06:50:41;100955.34;;;13.57;100.00
10510;BME280;5303;53.266;10.410;2022-10-16T06:53:06;100955.66;;;13.62;100.00
10510;BME280;5303;53.266;10.410;2022-10-16T06:55:31;100953.00;;;13.68;100.00
10510;BME280;5303;53.266;10.410;2022-10-16T06:57:57;100957.34;;;13.63;100.00
10510;BME280;5303;53.266;10.410;2022-10-16T07:00:22;100969.78;;;13.65;100.00
10510;BME280;5303;53.266;10.410;2022-10-16T07:02:47;100961.94;;;13.77;100.00
10510;BME280;5303;53.266;10.410;2022-10-16T07:05:12;100962.59;;;13.79;100.00
10510;BME280;5303;53.266;10.410;2022-10-16T07:07:38;100968.91;;;13.80;100.00
10510;BME280;5303;53.266;10.410;2022-10-16T07:10:03;100978.19;;;13.79;100.00
10510;BME280;5303;53.266;10.410;2022-10-16T07:12:29;100981.38;;;13.82;100.00
10510;BME280;5303;53.266;10.410;2022-10-16T07:14:54;100978.34;;;13.77;100.00
10510;BME280;5303;53.266;10.410;2022-10-16T07:17:21;100984.34;;;13.81;100.00
10510;BME280;5303;53.266;10.410;2022-10-16T07:19:46;100994.69;;;13.85;100.00
10510;BME280;5303;53.266;10.410;2022-10-16T07:22:11;100980.63;;;13.88;100.00
10510;BME280;5303;53.266;10.410;2022-10-16T07:24:36;100982.13;;;13.91;100.00
10510;BME280;5303;53.266;10.410;2022-10-16T07:27:02;100985.81;;;13.98;100.00
10510;BME280;5303;53.266;10.410;2022-10-16T07:29:27;100995.78;;;14.06;100.00
10510;BME280;5303;53.266;10.410;2022-10-16T07:31:52;101001.28;;;14.06;100.00
10510;BME280;5303;53.266;10.410;2022-10-16T07:34:19;101002.22;;;14.13;100.00
10510;BME280;5303;53.266;10.410;2022-10-16T07:36:50;101008.03;;;14.25;100.00
10510;BME280;5303;53.266;10.410;2022-10-16T07:39:16;101005.56;;;14.30;100.00
10510;BME280;5303;53.266;10.410;2022-10-16T07:41:41;101007.47;;;14.29;100.00
10510;BME280;5303;53.266;10.410;2022-10-16T07:44:06;101008.69;;;14.27;100.00
10510;BME280;5303;53.266;10.410;2022-10-16T07:46:32;101012.56;;;14.32;100.00
10510;BME280;5303;53.266;10.410;2022-10-16T07:48:59;101024.25;;;14.41;100.00
10510;BME280;5303;53.266;10.410;2022-10-16T07:51:25;101022.72;;;14.53;100.00
10510;BME280;5303;53.266;10.410;2022-10-16T07:53:51;101024.91;;;14.58;100.00
10510;BME280;5303;53.266;10.410;2022-10-16T07:56:18;101036.72;;;14.58;100.00
10510;BME280;5303;53.266;10.410;2022-10-16T07:58:44;101031.28;;;14.65;100.00
10510;BME280;5303;53.266;10.410;2022-10-16T08:01:15;101032.09;;;14.80;100.00
10510;BME280;5303;53.266;10.410;2022-10-16T08:03:49;101040.16;;;14.88;100.00
10510;BME280;5303;53.266;10.410;2022-10-16T08:06:16;101041.47;;;14.93;100.00
10510;BME280;5303;53.266;10.410;2022-10-16T08:08:42;101037.88;;;15.13;100.00
10510;BME280;5303;53.266;10.410;2022-10-16T08:11:07;101048.41;;;15.10;100.00
10510;BME280;5303;53.266;10.410;2022-10-16T08:13:33;101045.56;;;15.25;100.00
10510;BME280;5303;53.266;10.410;2022-10-16T08:15:59;101050.91;;;15.33;100.00
10510;BME280;5303;53.266;10.410;2022-10-16T08:18:24;101057.56;;;15.45;100.00
10510;BME280;5303;53.266;10.410;2022-10-16T08:20:57;101058.72;;;15.57;100.00
10510;BME280;5303;53.266;10.410;2022-10-16T08:23:23;101064.94;;;15.73;100.00
10510;BME280;5303;53.266;10.410;2022-10-16T08:25:50;101062.75;;;15.90;100.00
10510;BME280;5303;53.266;10.410;2022-10-16T08:28:16;101054.06;;;15.86;100.00
10510;BME280;5303;53.266;10.410;2022-10-16T08:30:41;101056.97;;;15.78;100.00
10510;BME280;5303;53.266;10.410;2022-10-16T08:33:07;101063.63;;;15.97;100.00
10510;BME280;5303;53.266;10.410;2022-10-16T08:35:32;101067.25;;;16.04;100.00
10510;BME280;5303;53.266;10.410;2022-10-16T08:37:59;101066.84;;;16.07;100.00
10510;BME280;5303;53.266;10.410;2022-10-16T08:40:29;101065.59;;;16.10;100.00
10510;BME280;5303;53.266;10.410;2022-10-16T08:50:27;101075.47;;;15.97;100.00
10510;BME280;5303;53.266;10.410;2022-10-16T08:52:53;101081.44;;;16.07;100.00
10510;BME280;5303;53.266;10.410;2022-10-16T08:58:11;101083.38;;;16.14;100.00
10510;BME280;5303;53.266;10.410;2022-10-16T09:00:38;101078.03;;;15.99;100.00
10510;BME280;5303;53.266;10.410;2022-10-16T09:03:16;101082.06;;;16.03;100.00
10510;BME280;5303;53.266;10.410;2022-10-16T09:05:49;101085.69;;;16.10;100.00
10510;BME280;5303;53.266;10.410;2022-10-16T09:14:35;101091.94;;;16.32;100.00
10510;BME280;5303;53.266;10.410;2022-10-16T09:16:36;101088.34;;;16.32;100.00
10510;BME280;5303;53.266;10.410;2022-10-16T09:19:19;101080.72;;;16.34;100.00
10510;BME280;5303;53.266;10.410;2022-10-16T09:21:47;101087.69;;;16.36;100.00
10510;BME280;5303;53.266;10.410;2022-10-16T09:24:18;101079.50;;;16.49;100.00
10510;BME280;5303;53.266;10.410;2022-10-16T09:26:44;101076.34;;;16.52;100.00
10510;BME280;5303;53.266;10.410;2022-10-16T09:29:14;101073.19;;;16.56;100.00
10510;BME280;5303;53.266;10.410;2022-10-16T09:31:40;101079.13;;;16.59;100.00
10510;BME280;5303;53.266;10.410;2022-10-16T09:34:08;101076.41;;;16.72;100.00
10510;BME280;5303;53.266;10.410;2022-10-16T09:36:43;101081.03;;;16.65;100.00
10510;BME280;5303;53.266;10.410;2022-10-16T09:39:11;101089.16;;;16.80;100.00
10510;BME280;5303;53.266;10.410;2022-10-16T09:41:42;101094.69;;;16.87;100.00
10510;BME280;5303;53.266;10.410;2022-10-16T09:46:44;101097.47;;;17.00;100.00
10510;BME280;5303;53.266;10.410;2022-10-16T09:51:43;101104.69;;;17.14;100.00
10510;BME280;5303;53.266;10.410;2022-10-16T09:56:35;101115.72;;;17.28;100.00
10510;BME280;5303;53.266;10.410;2022-10-16T09:59:13;101106.81;;;17.12;100.00
10510;BME280;5303;53.266;10.410;2022-10-16T10:01:40;101111.25;;;17.20;100.00
10510;BME280;5303;53.266;10.410;2022-10-16T10:04:07;101116.56;;;17.21;100.00
10510;BME280;5303;53.266;10.410;2022-10-16T10:06:34;101121.84;;;17.30;100.00
10510;BME280;5303;53.266;10.410;2022-10-16T10:11:50;101126.75;;;17.28;100.00
10510;BME280;5303;53.266;10.410;2022-10-16T10:14:35;101130.34;;;17.41;100.00
10510;BME280;5303;53.266;10.410;2022-10-16T10:19:29;101114.66;;;17.68;100.00
10510;BME280;5303;53.266;10.410;2022-10-16T10:21:55;101121.03;;;17.76;100.00
10510;BME280;5303;53.266;10.410;2022-10-16T10:24:20;101116.81;;;17.80;100.00
10510;BME280;5303;53.266;10.410;2022-10-16T10:32:32;101128.03;;;17.98;100.00
10510;BME280;5303;53.266;10.410;2022-10-16T10:35:20;101140.94;;;17.84;100.00
10510;BME280;5303;53.266;10.410;2022-10-16T10:37:51;101135.22;;;17.99;100.00
10510;BME280;5303;53.266;10.410;2022-10-16T10:45:43;101130.78;;;17.98;100.00
10510;BME280;5303;53.266;10.410;2022-10-16T10:51:01;101141.81;;;17.91;100.00
10510;BME280;5303;53.266;10.410;2022-10-16T10:59:35;101134.78;;;18.09;100.00
10510;BME280;5303;53.266;10.410;2022-10-16T11:02:15;101132.84;;;18.09;100.00
10510;BME280;5303;53.266;10.410;2022-10-16T11:04:59;101139.19;;;18.16;100.00
10510;BME280;5303;53.266;10.410;2022-10-16T11:07:32;101141.50;;;18.26;100.00
10510;BME280;5303;53.266;10.410;2022-10-16T11:10:09;101145.75;;;18.29;100.00
10510;BME280;5303;53.266;10.410;2022-10-16T11:12:44;101147.44;;;18.36;100.00
10510;BME280;5303;53.266;10.410;2022-10-16T11:15:18;101154.66;;;18.37;100.00
10510;BME280;5303;53.266;10.410;2022-10-16T11:17:49;101151.47;;;18.41;100.00
10510;BME280;5303;53.266;10.410;2022-10-16T11:20:28;101165.63;;;18.51;100.00
10510;BME280;5303;53.266;10.410;2022-10-16T11:22:59;101168.78;;;18.61;100.00
10510;BME280;5303;53.266;10.410;2022-10-16T11:25:29;101163.06;;;18.62;100.00
10510;BME280;5303;53.266;10.410;2022-10-16T11:28:11;101159.88;;;18.72;100.00
10510;BME280;5303;53.266;10.410;2022-10-16T11:33:44;101169.75;;;18.87;100.00
10510;BME280;5303;53.266;10.410;2022-10-16T11:36:25;101167.31;;;19.10;100.00
10510;BME280;5303;53.266;10.410;2022-10-16T11:39:21;101172.13;;;19.21;100.00
10510;BME280;5303;53.266;10.410;2022-10-16T11:41:54;101174.25;;;19.19;100.00
10510;BME280;5303;53.266;10.410;2022-10-16T11:44:36;101156.88;;;19.12;100.00
10510;BME280;5303;53.266;10.410;2022-10-16T11:47:35;101164.28;;;19.18;100.00
10510;BME280;5303;53.266;10.410;2022-10-16T11:50:25;101158.06;;;19.29;100.00
10510;BME280;5303;53.266;10.410;2022-10-16T11:52:57;101172.28;;;19.33;100.00
10510;BME280;5303;53.266;10.410;2022-10-16T11:55:46;101173.38;;;19.25;100.00
10510;BME280;5303;53.266;10.410;2022-10-16T12:06:36;101197.72;;;19.03;100.00
10510;BME280;5303;53.266;10.410;2022-10-16T12:09:03;101191.81;;;18.93;100.00
10510;BME280;5303;53.266;10.410;2022-10-16T12:16:29;101194.75;;;19.05;100.00
10510;BME280;5303;53.266;10.410;2022-10-16T12:21:35;101208.19;;;18.95;100.00
10510;BME280;5303;53.266;10.410;2022-10-16T12:24:02;101200.25;;;19.05;100.00
10510;BME280;5303;53.266;10.410;2022-10-16T12:26:32;101203.63;;;19.14;100.00
10510;BME280;5303;53.266;10.410;2022-10-16T12:29:23;101200.00;;;19.13;100.00
10510;BME280;5303;53.266;10.410;2022-10-16T12:31:53;101204.88;;;19.18;100.00
10510;BME280;5303;53.266;10.410;2022-10-16T12:37:14;101220.59;;;19.17;100.00
10510;BME280;5303;53.266;10.410;2022-10-16T12:39:40;101222.72;;;19.15;100.00
10510;BME280;5303;53.266;10.410;2022-10-16T12:42:21;101220.69;;;18.97;100.00
10510;BME280;5303;53.266;10.410;2022-10-16T12:44:47;101218.97;;;18.96;100.00
10510;BME280;5303;53.266;10.410;2022-10-16T12:49:57;101226.59;;;19.07;100.00
10510;BME280;5303;53.266;10.410;2022-10-16T12:52:36;101225.69;;;19.20;100.00
10510;BME280;5303;53.266;10.410;2022-10-16T12:55:04;101224.19;;;19.18;100.00
10510;BME280;5303;53.266;10.410;2022-10-16T13:00:25;101232.25;;;19.19;100.00
10510;BME280;5303;53.266;10.410;2022-10-16T13:06:11;101239.91;;;19.24;100.00
10510;BME280;5303;53.266;10.410;2022-10-16T13:11:14;101244.97;;;19.27;100.00
10510;BME280;5303;53.266;10.410;2022-10-16T13:14:09;101244.56;;;19.23;100.00
10510;BME280;5303;53.266;10.410;2022-10-16T13:27:59;101270.66;;;19.34;100.00
10510;BME280;5303;53.266;10.410;2022-10-16T13:30:28;101276.00;;;19.22;100.00
10510;BME280;5303;53.266;10.410;2022-10-16T13:33:12;101269.94;;;19.07;100.00
10510;BME280;5303;53.266;10.410;2022-10-16T13:35:47;101274.13;;;19.16;100.00
10510;BME280;5303;53.266;10.410;2022-10-16T13:38:19;101282.84;;;19.20;100.00
10510;BME280;5303;53.266;10.410;2022-10-16T13:40:55;101277.91;;;19.22;100.00
10510;BME280;5303;53.266;10.410;2022-10-16T13:43:24;101290.00;;;19.27;100.00
10510;BME280;5303;53.266;10.410;2022-10-16T13:48:23;101294.50;;;19.22;100.00
10510;BME280;5303;53.266;10.410;2022-10-16T13:51:24;101306.66;;;19.14;100.00
10510;BME280;5303;53.266;10.410;2022-10-16T13:53:50;101300.00;;;19.22;100.00
10510;BME280;5303;53.266;10.410;2022-10-16T13:56:18;101306.84;;;19.13;100.00
10510;BME280;5303;53.266;10.410;2022-10-16T13:58:44;101300.06;;;19.08;100.00
10510;BME280;5303;53.266;10.410;2022-10-16T14:01:18;101301.72;;;19.16;100.00
10510;BME280;5303;53.266;10.410;2022-10-16T14:03:46;101306.88;;;19.06;100.00
10510;BME280;5303;53.266;10.410;2022-10-16T14:06:17;101319.84;;;19.05;100.00
10510;BME280;5303;53.266;10.410;2022-10-16T14:08:46;101318.69;;;19.33;100.00
10510;BME280;5303;53.266;10.410;2022-10-16T14:11:20;101321.78;;;19.50;100.00
10510;BME280;5303;53.266;10.410;2022-10-16T14:13:46;101325.19;;;19.52;100.00
10510;BME280;5303;53.266;10.410;2022-10-16T14:16:18;101326.63;;;19.54;99.40
10510;BME280;5303;53.266;10.410;2022-10-16T14:18:46;101323.22;;;19.59;99.20
10510;BME280;5303;53.266;10.410;2022-10-16T14:21:16;101327.66;;;19.67;98.34
10510;BME280;5303;53.266;10.410;2022-10-16T14:23:42;101327.47;;;19.68;98.98
10510;BME280;5303;53.266;10.410;2022-10-16T14:28:33;101336.47;;;19.44;100.00
10510;BME280;5303;53.266;10.410;2022-10-16T14:31:01;101334.94;;;19.54;100.00
10510;BME280;5303;53.266;10.410;2022-10-16T14:36:12;101351.41;;;19.36;100.00
10510;BME280;5303;53.266;10.410;2022-10-16T14:38:39;101358.88;;;19.16;100.00
10510;BME280;5303;53.266;10.410;2022-10-16T14:41:06;101363.38;;;19.10;100.00
10510;BME280;5303;53.266;10.410;2022-10-16T14:43:39;101361.03;;;19.00;100.00
10510;BME280;5303;53.266;10.410;2022-10-16T14:46:21;101362.56;;;18.90;100.00
10510;BME280;5303;53.266;10.410;2022-10-16T14:48:54;101365.97;;;18.92;100.00
10510;BME280;5303;53.266;10.410;2022-10-16T14:51:21;101356.81;;;18.98;100.00